Douglas, North Dakota
Current Conditions -  °F | °C
As of 6:28 AM on Wednesday 26 Nov 2014 (Local Time) from KMOT Reporting Station
Light Snow Light Snow  
Wind Chill: -6°   Ceiling: 3600
Heat Index:   Visibility: 4mi
Dew Point:   Wind: 6mph
Humidity: 84%   Direction: 10°N
Pressure: 30.29"   Gusts: NA
Location:  47.86°N, 101.5°W
Report Text: KMOT 261228Z AUTO 01005KT 4SM -SN BR OVC036 M15/M17 A3029 RMK AO2 P0000 T11501172
Loading
Personal Weather Stations






























Interactive Weather Map New forecast layout! Learn more

10-Day Weather Forecast

Advertisements
Track Severe Weather on mobile